sensor_id;sensor_type;location;lat;lon;timestamp;P1;durP1;ratioP1;P2;durP2;ratioP2
34585;SDS011;20816;50.950;11.108;2023-06-10T00:00:26;2.27;;;1.80;;
34585;SDS011;20816;50.950;11.108;2023-06-10T00:02:53;4.00;;;2.43;;
34585;SDS011;20816;50.950;11.108;2023-06-10T00:05:20;3.40;;;2.27;;
34585;SDS011;20816;50.950;11.108;2023-06-10T00:07:47;5.00;;;2.53;;
34585;SDS011;20816;50.950;11.108;2023-06-10T00:10:14;3.93;;;2.47;;
34585;SDS011;20816;50.950;11.108;2023-06-10T00:12:41;2.50;;;2.20;;
34585;SDS011;20816;50.950;11.108;2023-06-10T00:15:10;3.33;;;2.37;;
34585;SDS011;20816;50.950;11.108;2023-06-10T00:17:37;3.70;;;2.37;;
34585;SDS011;20816;50.950;11.108;2023-06-10T00:20:09;2.93;;;2.00;;
34585;SDS011;20816;50.950;11.108;2023-06-10T00:22:40;2.83;;;2.07;;
34585;SDS011;20816;50.950;11.108;2023-06-10T00:25:08;3.67;;;2.40;;
34585;SDS011;20816;50.950;11.108;2023-06-10T00:27:37;5.67;;;2.47;;
34585;SDS011;20816;50.950;11.108;2023-06-10T00:30:04;3.47;;;2.00;;
34585;SDS011;20816;50.950;11.108;2023-06-10T00:32:33;4.03;;;1.83;;
34585;SDS011;20816;50.950;11.108;2023-06-10T00:35:02;5.23;;;2.10;;
34585;SDS011;20816;50.950;11.108;2023-06-10T00:37:29;3.30;;;2.53;;
34585;SDS011;20816;50.950;11.108;2023-06-10T00:39:56;5.60;;;2.80;;
34585;SDS011;20816;50.950;11.108;2023-06-10T00:42:23;3.83;;;2.37;;
34585;SDS011;20816;50.950;11.108;2023-06-10T00:44:50;3.40;;;2.37;;
34585;SDS011;20816;50.950;11.108;2023-06-10T00:47:17;3.67;;;2.07;;
34585;SDS011;20816;50.950;11.108;2023-06-10T00:49:45;4.13;;;2.63;;
34585;SDS011;20816;50.950;11.108;2023-06-10T00:52:12;3.20;;;2.23;;
34585;SDS011;20816;50.950;11.108;2023-06-10T00:54:41;3.10;;;2.17;;
34585;SDS011;20816;50.950;11.108;2023-06-10T00:57:08;4.60;;;2.07;;
34585;SDS011;20816;50.950;11.108;2023-06-10T00:59:34;4.07;;;2.00;;
34585;SDS011;20816;50.950;11.108;2023-06-10T01:02:03;3.17;;;2.00;;
34585;SDS011;20816;50.950;11.108;2023-06-10T01:04:30;5.40;;;2.40;;
34585;SDS011;20816;50.950;11.108;2023-06-10T01:09:40;2.80;;;2.00;;
34585;SDS011;20816;50.950;11.108;2023-06-10T01:12:32;3.57;;;2.57;;
34585;SDS011;20816;50.950;11.108;2023-06-10T01:15:16;2.87;;;1.93;;
34585;SDS011;20816;50.950;11.108;2023-06-10T01:17:56;3.40;;;2.53;;
34585;SDS011;20816;50.950;11.108;2023-06-10T01:20:28;3.80;;;2.60;;
34585;SDS011;20816;50.950;11.108;2023-06-10T01:22:59;3.83;;;2.30;;
34585;SDS011;20816;50.950;11.108;2023-06-10T01:25:27;3.77;;;2.40;;
34585;SDS011;20816;50.950;11.108;2023-06-10T01:27:57;3.00;;;2.10;;
34585;SDS011;20816;50.950;11.108;2023-06-10T01:30:30;3.43;;;2.27;;
34585;SDS011;20816;50.950;11.108;2023-06-10T01:33:04;3.10;;;2.57;;
34585;SDS011;20816;50.950;11.108;2023-06-10T01:35:34;4.53;;;2.37;;
34585;SDS011;20816;50.950;11.108;2023-06-10T01:38:06;4.57;;;2.87;;
34585;SDS011;20816;50.950;11.108;2023-06-10T01:40:33;4.23;;;2.70;;
34585;SDS011;20816;50.950;11.108;2023-06-10T01:43:01;5.30;;;2.30;;
34585;SDS011;20816;50.950;11.108;2023-06-10T01:45:28;4.50;;;2.93;;
34585;SDS011;20816;50.950;11.108;2023-06-10T01:47:55;5.43;;;2.60;;
34585;SDS011;20816;50.950;11.108;2023-06-10T01:50:21;5.07;;;2.70;;
34585;SDS011;20816;50.950;11.108;2023-06-10T01:52:48;5.27;;;2.87;;
34585;SDS011;20816;50.950;11.108;2023-06-10T01:55:15;3.50;;;2.27;;
34585;SDS011;20816;50.950;11.108;2023-06-10T01:57:42;4.43;;;1.97;;
34585;SDS011;20816;50.950;11.108;2023-06-10T02:00:09;5.67;;;2.20;;
34585;SDS011;20816;50.950;11.108;2023-06-10T02:02:36;3.93;;;2.17;;
34585;SDS011;20816;50.950;11.108;2023-06-10T02:05:03;4.83;;;2.60;;
34585;SDS011;20816;50.950;11.108;2023-06-10T02:07:30;5.03;;;2.30;;
34585;SDS011;20816;50.950;11.108;2023-06-10T02:09:56;3.27;;;2.13;;
34585;SDS011;20816;50.950;11.108;2023-06-10T02:12:23;2.97;;;2.13;;
34585;SDS011;20816;50.950;11.108;2023-06-10T02:14:50;3.70;;;2.10;;
34585;SDS011;20816;50.950;11.108;2023-06-10T02:17:16;4.30;;;2.60;;
34585;SDS011;20816;50.950;11.108;2023-06-10T02:19:43;4.10;;;2.27;;
34585;SDS011;20816;50.950;11.108;2023-06-10T02:22:10;2.60;;;2.30;;
34585;SDS011;20816;50.950;11.108;2023-06-10T02:24:37;3.30;;;2.10;;
34585;SDS011;20816;50.950;11.108;2023-06-10T02:27:06;7.37;;;2.37;;
34585;SDS011;20816;50.950;11.108;2023-06-10T02:29:33;10.67;;;2.50;;
34585;SDS011;20816;50.950;11.108;2023-06-10T02:32:02;8.50;;;2.53;;
34585;SDS011;20816;50.950;11.108;2023-06-10T02:34:29;4.27;;;2.27;;
34585;SDS011;20816;50.950;11.108;2023-06-10T02:36:56;3.57;;;1.93;;
34585;SDS011;20816;50.950;11.108;2023-06-10T02:39:23;4.80;;;2.47;;
34585;SDS011;20816;50.950;11.108;2023-06-10T02:41:50;3.47;;;2.20;;
34585;SDS011;20816;50.950;11.108;2023-06-10T02:44:17;7.80;;;3.87;;
34585;SDS011;20816;50.950;11.108;2023-06-10T02:46:44;3.53;;;2.50;;
34585;SDS011;20816;50.950;11.108;2023-06-10T02:49:11;4.60;;;2.23;;
34585;SDS011;20816;50.950;11.108;2023-06-10T02:51:39;4.47;;;2.00;;
34585;SDS011;20816;50.950;11.108;2023-06-10T02:54:05;5.83;;;3.20;;
34585;SDS011;20816;50.950;11.108;2023-06-10T02:56:32;4.43;;;2.60;;
34585;SDS011;20816;50.950;11.108;2023-06-10T02:58:59;6.20;;;2.60;;
34585;SDS011;20816;50.950;11.108;2023-06-10T03:01:26;10.30;;;3.30;;
34585;SDS011;20816;50.950;11.108;2023-06-10T03:03:53;3.37;;;2.00;;
34585;SDS011;20816;50.950;11.108;2023-06-10T03:06:22;5.07;;;2.57;;
34585;SDS011;20816;50.950;11.108;2023-06-10T03:08:50;3.43;;;2.57;;
34585;SDS011;20816;50.950;11.108;2023-06-10T03:11:17;2.87;;;1.87;;
34585;SDS011;20816;50.950;11.108;2023-06-10T03:13:45;8.00;;;2.93;;
34585;SDS011;20816;50.950;11.108;2023-06-10T03:16:12;3.73;;;2.37;;
34585;SDS011;20816;50.950;11.108;2023-06-10T03:18:39;5.17;;;2.67;;
34585;SDS011;20816;50.950;11.108;2023-06-10T03:21:06;3.80;;;2.57;;
34585;SDS011;20816;50.950;11.108;2023-06-10T03:23:32;2.43;;;2.23;;
34585;SDS011;20816;50.950;11.108;2023-06-10T03:26:00;2.50;;;2.10;;
34585;SDS011;20816;50.950;11.108;2023-06-10T03:28:26;5.90;;;3.47;;
34585;SDS011;20816;50.950;11.108;2023-06-10T03:30:53;3.17;;;2.40;;
34585;SDS011;20816;50.950;11.108;2023-06-10T03:33:20;3.93;;;2.23;;
34585;SDS011;20816;50.950;11.108;2023-06-10T03:35:47;4.80;;;3.47;;
34585;SDS011;20816;50.950;11.108;2023-06-10T03:38:14;6.67;;;2.57;;
34585;SDS011;20816;50.950;11.108;2023-06-10T03:40:40;3.70;;;2.43;;
34585;SDS011;20816;50.950;11.108;2023-06-10T03:43:08;4.83;;;2.67;;
34585;SDS011;20816;50.950;11.108;2023-06-10T03:45:35;3.40;;;2.30;;
34585;SDS011;20816;50.950;11.108;2023-06-10T03:48:02;2.27;;;1.70;;
34585;SDS011;20816;50.950;11.108;2023-06-10T03:50:30;5.07;;;2.33;;
34585;SDS011;20816;50.950;11.108;2023-06-10T03:52:57;9.53;;;2.63;;
34585;SDS011;20816;50.950;11.108;2023-06-10T03:55:24;3.00;;;2.40;;
34585;SDS011;20816;50.950;11.108;2023-06-10T03:57:50;4.47;;;2.00;;
34585;SDS011;20816;50.950;11.108;2023-06-10T04:00:17;3.67;;;2.30;;
34585;SDS011;20816;50.950;11.108;2023-06-10T04:02:47;4.50;;;2.03;;
34585;SDS011;20816;50.950;11.108;2023-06-10T04:05:17;3.70;;;2.40;;
34585;SDS011;20816;50.950;11.108;2023-06-10T04:07:44;4.53;;;2.60;;
34585;SDS011;20816;50.950;11.108;2023-06-10T04:10:12;4.20;;;1.87;;
34585;SDS011;20816;50.950;11.108;2023-06-10T04:12:39;4.47;;;2.40;;
34585;SDS011;20816;50.950;11.108;2023-06-10T04:15:06;5.37;;;2.23;;
34585;SDS011;20816;50.950;11.108;2023-06-10T04:17:34;1.83;;;1.67;;
34585;SDS011;20816;50.950;11.108;2023-06-10T04:20:01;3.57;;;2.20;;
34585;SDS011;20816;50.950;11.108;2023-06-10T04:22:30;4.30;;;2.27;;
34585;SDS011;20816;50.950;11.108;2023-06-10T04:24:57;3.13;;;2.20;;
34585;SDS011;20816;50.950;11.108;2023-06-10T04:27:24;8.63;;;2.47;;
34585;SDS011;20816;50.950;11.108;2023-06-10T04:29:51;4.30;;;2.47;;
34585;SDS011;20816;50.950;11.108;2023-06-10T04:32:18;4.53;;;2.17;;
34585;SDS011;20816;50.950;11.108;2023-06-10T04:34:45;4.87;;;2.43;;
34585;SDS011;20816;50.950;11.108;2023-06-10T04:37:12;3.23;;;2.17;;
34585;SDS011;20816;50.950;11.108;2023-06-10T04:39:38;4.60;;;2.43;;
34585;SDS011;20816;50.950;11.108;2023-06-10T04:42:05;8.60;;;2.97;;
34585;SDS011;20816;50.950;11.108;2023-06-10T04:44:32;5.47;;;2.33;;
34585;SDS011;20816;50.950;11.108;2023-06-10T04:46:59;2.87;;;1.70;;
34585;SDS011;20816;50.950;11.108;2023-06-10T04:49:26;5.07;;;2.60;;
34585;SDS011;20816;50.950;11.108;2023-06-10T04:51:53;3.87;;;2.70;;
34585;SDS011;20816;50.950;11.108;2023-06-10T04:54:19;4.77;;;2.20;;
34585;SDS011;20816;50.950;11.108;2023-06-10T04:56:46;5.27;;;2.57;;
34585;SDS011;20816;50.950;11.108;2023-06-10T04:59:13;4.17;;;2.40;;
34585;SDS011;20816;50.950;11.108;2023-06-10T05:01:40;3.80;;;2.20;;
34585;SDS011;20816;50.950;11.108;2023-06-10T05:04:08;2.47;;;1.90;;
34585;SDS011;20816;50.950;11.108;2023-06-10T05:06:34;3.17;;;2.80;;
34585;SDS011;20816;50.950;11.108;2023-06-10T05:09:03;6.30;;;2.37;;
34585;SDS011;20816;50.950;11.108;2023-06-10T05:11:29;4.50;;;3.20;;
34585;SDS011;20816;50.950;11.108;2023-06-10T05:13:56;5.93;;;3.13;;
34585;SDS011;20816;50.950;11.108;2023-06-10T05:16:23;2.50;;;2.07;;
34585;SDS011;20816;50.950;11.108;2023-06-10T05:18:50;6.00;;;2.40;;
34585;SDS011;20816;50.950;11.108;2023-06-10T05:21:18;6.50;;;2.72;;
34585;SDS011;20816;50.950;11.108;2023-06-10T05:23:45;5.03;;;2.30;;
34585;SDS011;20816;50.950;11.108;2023-06-10T05:26:12;3.50;;;2.47;;
34585;SDS011;20816;50.950;11.108;2023-06-10T05:28:39;6.30;;;2.92;;
34585;SDS011;20816;50.950;11.108;2023-06-10T05:31:05;8.93;;;2.80;;
34585;SDS011;20816;50.950;11.108;2023-06-10T05:33:32;4.68;;;2.30;;
34585;SDS011;20816;50.950;11.108;2023-06-10T05:35:59;3.58;;;2.10;;
34585;SDS011;20816;50.950;11.108;2023-06-10T05:38:26;4.25;;;3.38;;
34585;SDS011;20816;50.950;11.108;2023-06-10T05:40:52;4.53;;;2.45;;
34585;SDS011;20816;50.950;11.108;2023-06-10T05:43:19;6.28;;;2.67;;
34585;SDS011;20816;50.950;11.108;2023-06-10T05:45:46;4.80;;;2.45;;
34585;SDS011;20816;50.950;11.108;2023-06-10T05:48:13;9.95;;;3.53;;
34585;SDS011;20816;50.950;11.108;2023-06-10T05:50:40;3.13;;;2.83;;
34585;SDS011;20816;50.950;11.108;2023-06-10T05:53:08;6.97;;;3.22;;
34585;SDS011;20816;50.950;11.108;2023-06-10T05:55:42;4.00;;;3.08;;
34585;SDS011;20816;50.950;11.108;2023-06-10T05:58:09;4.22;;;2.10;;
34585;SDS011;20816;50.950;11.108;2023-06-10T06:00:38;5.03;;;2.70;;
34585;SDS011;20816;50.950;11.108;2023-06-10T06:03:06;3.83;;;2.65;;
34585;SDS011;20816;50.950;11.108;2023-06-10T06:05:35;6.47;;;2.75;;
34585;SDS011;20816;50.950;11.108;2023-06-10T06:08:04;5.10;;;3.13;;
34585;SDS011;20816;50.950;11.108;2023-06-10T06:10:31;5.07;;;2.67;;
34585;SDS011;20816;50.950;11.108;2023-06-10T06:12:58;4.72;;;2.60;;
34585;SDS011;20816;50.950;11.108;2023-06-10T06:15:25;6.72;;;3.05;;
34585;SDS011;20816;50.950;11.108;2023-06-10T06:17:52;3.13;;;2.72;;
34585;SDS011;20816;50.950;11.108;2023-06-10T06:20:20;5.72;;;2.67;;
34585;SDS011;20816;50.950;11.108;2023-06-10T06:22:46;4.65;;;2.30;;
34585;SDS011;20816;50.950;11.108;2023-06-10T06:25:14;3.22;;;2.53;;
34585;SDS011;20816;50.950;11.108;2023-06-10T06:27:41;5.53;;;2.85;;
34585;SDS011;20816;50.950;11.108;2023-06-10T06:30:08;3.45;;;2.33;;
34585;SDS011;20816;50.950;11.108;2023-06-10T06:32:35;13.65;;;2.83;;
34585;SDS011;20816;50.950;11.108;2023-06-10T06:35:02;4.95;;;2.60;;
34585;SDS011;20816;50.950;11.108;2023-06-10T06:37:29;7.60;;;2.90;;
34585;SDS011;20816;50.950;11.108;2023-06-10T06:39:57;3.90;;;2.63;;
34585;SDS011;20816;50.950;11.108;2023-06-10T06:42:27;5.38;;;3.15;;
34585;SDS011;20816;50.950;11.108;2023-06-10T06:44:54;4.03;;;2.83;;
34585;SDS011;20816;50.950;11.108;2023-06-10T06:47:20;6.85;;;2.58;;
34585;SDS011;20816;50.950;11.108;2023-06-10T06:49:47;4.20;;;3.10;;
34585;SDS011;20816;50.950;11.108;2023-06-10T06:52:14;6.10;;;2.45;;
34585;SDS011;20816;50.950;11.108;2023-06-10T06:54:41;6.88;;;3.47;;
34585;SDS011;20816;50.950;11.108;2023-06-10T06:57:08;5.28;;;2.30;;
34585;SDS011;20816;50.950;11.108;2023-06-10T06:59:35;2.88;;;2.30;;
34585;SDS011;20816;50.950;11.108;2023-06-10T07:02:02;8.70;;;3.20;;
34585;SDS011;20816;50.950;11.108;2023-06-10T07:04:29;8.45;;;3.20;;
34585;SDS011;20816;50.950;11.108;2023-06-10T07:06:56;5.38;;;2.70;;
34585;SDS011;20816;50.950;11.108;2023-06-10T07:09:23;5.90;;;2.97;;
34585;SDS011;20816;50.950;11.108;2023-06-10T07:11:50;5.30;;;3.53;;
34585;SDS011;20816;50.950;11.108;2023-06-10T07:14:16;5.45;;;3.50;;
34585;SDS011;20816;50.950;11.108;2023-06-10T07:16:43;7.20;;;3.15;;
34585;SDS011;20816;50.950;11.108;2023-06-10T07:19:11;6.57;;;3.13;;
34585;SDS011;20816;50.950;11.108;2023-06-10T07:21:38;4.90;;;2.85;;
34585;SDS011;20816;50.950;11.108;2023-06-10T07:24:05;7.70;;;3.95;;
34585;SDS011;20816;50.950;11.108;2023-06-10T07:26:32;5.72;;;3.25;;
34585;SDS011;20816;50.950;11.108;2023-06-10T07:28:58;5.07;;;2.88;;
34585;SDS011;20816;50.950;11.108;2023-06-10T07:31:25;8.07;;;2.88;;
34585;SDS011;20816;50.950;11.108;2023-06-10T07:33:52;4.40;;;2.90;;
34585;SDS011;20816;50.950;11.108;2023-06-10T07:36:19;9.50;;;3.58;;
34585;SDS011;20816;50.950;11.108;2023-06-10T07:38:46;7.47;;;3.60;;
34585;SDS011;20816;50.950;11.108;2023-06-10T07:41:13;5.43;;;2.55;;
34585;SDS011;20816;50.950;11.108;2023-06-10T07:43:40;3.78;;;3.05;;
34585;SDS011;20816;50.950;11.108;2023-06-10T07:46:07;5.38;;;3.63;;
34585;SDS011;20816;50.950;11.108;2023-06-10T07:48:34;4.10;;;2.45;;
34585;SDS011;20816;50.950;11.108;2023-06-10T07:51:01;6.88;;;3.40;;
34585;SDS011;20816;50.950;11.108;2023-06-10T07:53:27;3.42;;;3.13;;
34585;SDS011;20816;50.950;11.108;2023-06-10T07:55:55;5.88;;;4.00;;
34585;SDS011;20816;50.950;11.108;2023-06-10T07:58:21;4.47;;;2.95;;
34585;SDS011;20816;50.950;11.108;2023-06-10T08:00:48;4.78;;;3.03;;
34585;SDS011;20816;50.950;11.108;2023-06-10T08:03:15;9.35;;;4.13;;
34585;SDS011;20816;50.950;11.108;2023-06-10T08:05:42;6.05;;;2.60;;
34585;SDS011;20816;50.950;11.108;2023-06-10T08:08:09;5.85;;;3.35;;
34585;SDS011;20816;50.950;11.108;2023-06-10T08:10:36;5.28;;;3.42;;
34585;SDS011;20816;50.950;11.108;2023-06-10T08:13:03;12.68;;;3.33;;
34585;SDS011;20816;50.950;11.108;2023-06-10T08:15:30;3.63;;;3.13;;
34585;SDS011;20816;50.950;11.108;2023-06-10T08:17:56;4.88;;;3.20;;
34585;SDS011;20816;50.950;11.108;2023-06-10T08:20:23;6.55;;;3.33;;
34585;SDS011;20816;50.950;11.108;2023-06-10T08:22:50;3.88;;;2.72;;
34585;SDS011;20816;50.950;11.108;2023-06-10T08:25:17;4.47;;;2.58;;
34585;SDS011;20816;50.950;11.108;2023-06-10T08:27:44;7.03;;;3.80;;
34585;SDS011;20816;50.950;11.108;2023-06-10T08:30:11;8.43;;;3.45;;
34585;SDS011;20816;50.950;11.108;2023-06-10T08:32:39;4.05;;;2.78;;
34585;SDS011;20816;50.950;11.108;2023-06-10T08:35:06;3.17;;;2.88;;
34585;SDS011;20816;50.950;11.108;2023-06-10T08:37:34;4.15;;;3.15;;
34585;SDS011;20816;50.950;11.108;2023-06-10T08:40:03;5.28;;;3.05;;
34585;SDS011;20816;50.950;11.108;2023-06-10T08:42:33;4.10;;;3.22;;
34585;SDS011;20816;50.950;11.108;2023-06-10T08:45:05;3.00;;;2.70;;
34585;SDS011;20816;50.950;11.108;2023-06-10T08:47:38;3.10;;;2.80;;
34585;SDS011;20816;50.950;11.108;2023-06-10T08:50:10;4.07;;;3.10;;
34585;SDS011;20816;50.950;11.108;2023-06-10T08:52:41;7.07;;;3.80;;
34585;SDS011;20816;50.950;11.108;2023-06-10T08:55:21;4.10;;;2.70;;
34585;SDS011;20816;50.950;11.108;2023-06-10T08:57:58;5.70;;;3.30;;
34585;SDS011;20816;50.950;11.108;2023-06-10T09:00:26;3.58;;;3.03;;
34585;SDS011;20816;50.950;11.108;2023-06-10T09:02:55;5.50;;;3.28;;
34585;SDS011;20816;50.950;11.108;2023-06-10T09:05:23;5.07;;;3.15;;
34585;SDS011;20816;50.950;11.108;2023-06-10T09:07:50;5.30;;;3.35;;
34585;SDS011;20816;50.950;11.108;2023-06-10T09:10:18;6.55;;;2.97;;
34585;SDS011;20816;50.950;11.108;2023-06-10T09:12:45;6.00;;;3.05;;
34585;SDS011;20816;50.950;11.108;2023-06-10T09:15:12;3.97;;;2.92;;
34585;SDS011;20816;50.950;11.108;2023-06-10T09:17:41;4.07;;;3.55;;
34585;SDS011;20816;50.950;11.108;2023-06-10T09:20:08;3.97;;;2.97;;
34585;SDS011;20816;50.950;11.108;2023-06-10T09:22:36;5.30;;;3.30;;
34585;SDS011;20816;50.950;11.108;2023-06-10T09:25:07;4.75;;;2.78;;
34585;SDS011;20816;50.950;11.108;2023-06-10T09:30:27;5.80;;;3.45;;
34585;SDS011;20816;50.950;11.108;2023-06-10T09:32:56;4.35;;;3.53;;
34585;SDS011;20816;50.950;11.108;2023-06-10T09:35:25;8.38;;;3.33;;
34585;SDS011;20816;50.950;11.108;2023-06-10T09:37:53;3.80;;;2.90;;
34585;SDS011;20816;50.950;11.108;2023-06-10T09:40:21;3.78;;;3.15;;
34585;SDS011;20816;50.950;11.108;2023-06-10T09:42:54;5.53;;;3.38;;
34585;SDS011;20816;50.950;11.108;2023-06-10T09:45:23;4.10;;;3.13;;
34585;SDS011;20816;50.950;11.108;2023-06-10T09:47:53;4.40;;;2.88;;
34585;SDS011;20816;50.950;11.108;2023-06-10T09:50:20;4.35;;;3.35;;
34585;SDS011;20816;50.950;11.108;2023-06-10T09:52:47;4.13;;;3.20;;
34585;SDS011;20816;50.950;11.108;2023-06-10T09:55:15;4.93;;;3.17;;
34585;SDS011;20816;50.950;11.108;2023-06-10T09:57:42;4.03;;;3.03;;
34585;SDS011;20816;50.950;11.108;2023-06-10T10:00:11;3.97;;;3.45;;
34585;SDS011;20816;50.950;11.108;2023-06-10T10:02:45;6.07;;;2.35;;
34585;SDS011;20816;50.950;11.108;2023-06-10T10:05:18;4.97;;;3.03;;
34585;SDS011;20816;50.950;11.108;2023-06-10T10:07:46;2.90;;;2.58;;
34585;SDS011;20816;50.950;11.108;2023-06-10T10:10:14;3.40;;;3.10;;
34585;SDS011;20816;50.950;11.108;2023-06-10T10:12:42;3.95;;;2.70;;
34585;SDS011;20816;50.950;11.108;2023-06-10T10:15:10;5.47;;;3.63;;
34585;SDS011;20816;50.950;11.108;2023-06-10T10:17:43;4.03;;;2.83;;
34585;SDS011;20816;50.950;11.108;2023-06-10T10:20:16;6.22;;;2.60;;
34585;SDS011;20816;50.950;11.108;2023-06-10T10:22:46;3.67;;;2.80;;
34585;SDS011;20816;50.950;11.108;2023-06-10T10:25:16;5.53;;;3.40;;
34585;SDS011;20816;50.950;11.108;2023-06-10T10:28:07;2.90;;;2.60;;
34585;SDS011;20816;50.950;11.108;2023-06-10T10:30:49;3.13;;;2.60;;
34585;SDS011;20816;50.950;11.108;2023-06-10T10:33:22;9.07;;;3.42;;
34585;SDS011;20816;50.950;11.108;2023-06-10T10:36:03;5.70;;;2.80;;
34585;SDS011;20816;50.950;11.108;2023-06-10T10:38:30;8.77;;;3.45;;
34585;SDS011;20816;50.950;11.108;2023-06-10T10:40:57;5.35;;;3.53;;
34585;SDS011;20816;50.950;11.108;2023-06-10T10:43:26;6.32;;;3.10;;
34585;SDS011;20816;50.950;11.108;2023-06-10T10:46:01;3.70;;;3.22;;
34585;SDS011;20816;50.950;11.108;2023-06-10T10:48:33;4.18;;;2.55;;
34585;SDS011;20816;50.950;11.108;2023-06-10T10:51:03;4.82;;;3.20;;
34585;SDS011;20816;50.950;11.108;2023-06-10T10:53:30;4.53;;;3.00;;
34585;SDS011;20816;50.950;11.108;2023-06-10T10:56:04;4.20;;;3.00;;
34585;SDS011;20816;50.950;11.108;2023-06-10T10:58:41;8.35;;;3.80;;
34585;SDS011;20816;50.950;11.108;2023-06-10T11:01:12;4.10;;;3.47;;
34585;SDS011;20816;50.950;11.108;2023-06-10T11:03:46;9.00;;;3.22;;
34585;SDS011;20816;50.950;11.108;2023-06-10T11:06:17;9.60;;;4.15;;
34585;SDS011;20816;50.950;11.108;2023-06-10T11:08:45;5.30;;;3.28;;
34585;SDS011;20816;50.950;11.108;2023-06-10T11:11:17;6.03;;;3.33;;
34585;SDS011;20816;50.950;11.108;2023-06-10T11:16:28;4.07;;;3.55;;
34585;SDS011;20816;50.950;11.108;2023-06-10T11:18:55;3.35;;;2.97;;
34585;SDS011;20816;50.950;11.108;2023-06-10T11:21:23;7.85;;;3.38;;
34585;SDS011;20816;50.950;11.108;2023-06-10T11:23:57;4.57;;;3.17;;
34585;SDS011;20816;50.950;11.108;2023-06-10T11:29:02;5.90;;;4.25;;
34585;SDS011;20816;50.950;11.108;2023-06-10T11:31:40;3.95;;;3.50;;
34585;SDS011;20816;50.950;11.108;2023-06-10T11:34:09;4.05;;;3.47;;
34585;SDS011;20816;50.950;11.108;2023-06-10T11:36:37;5.57;;;3.47;;
34585;SDS011;20816;50.950;11.108;2023-06-10T11:39:09;6.00;;;3.90;;
34585;SDS011;20816;50.950;11.108;2023-06-10T11:41:37;4.25;;;3.67;;
34585;SDS011;20816;50.950;11.108;2023-06-10T11:44:11;5.55;;;3.75;;
34585;SDS011;20816;50.950;11.108;2023-06-10T11:46:44;4.72;;;4.13;;
34585;SDS011;20816;50.950;11.108;2023-06-10T11:49:12;7.20;;;3.70;;
34585;SDS011;20816;50.950;11.108;2023-06-10T11:51:39;4.38;;;3.58;;
34585;SDS011;20816;50.950;11.108;2023-06-10T11:54:10;3.63;;;3.33;;
34585;SDS011;20816;50.950;11.108;2023-06-10T11:56:37;5.28;;;3.63;;
34585;SDS011;20816;50.950;11.108;2023-06-10T11:59:07;4.70;;;3.83;;
34585;SDS011;20816;50.950;11.108;2023-06-10T12:01:35;9.05;;;5.00;;
34585;SDS011;20816;50.950;11.108;2023-06-10T12:04:08;5.35;;;3.85;;
34585;SDS011;20816;50.950;11.108;2023-06-10T12:09:17;13.25;;;4.30;;
34585;SDS011;20816;50.950;11.108;2023-06-10T12:11:54;5.45;;;4.30;;
34585;SDS011;20816;50.950;11.108;2023-06-10T12:20:03;4.18;;;3.40;;
34585;SDS011;20816;50.950;11.108;2023-06-10T12:22:36;4.38;;;3.42;;
34585;SDS011;20816;50.950;11.108;2023-06-10T12:25:12;5.85;;;4.68;;
34585;SDS011;20816;50.950;11.108;2023-06-10T12:27:49;4.13;;;3.72;;
34585;SDS011;20816;50.950;11.108;2023-06-10T12:30:20;5.35;;;3.47;;
34585;SDS011;20816;50.950;11.108;2023-06-10T12:32:48;6.05;;;3.88;;
34585;SDS011;20816;50.950;11.108;2023-06-10T12:35:19;7.00;;;3.50;;
34585;SDS011;20816;50.950;11.108;2023-06-10T12:37:58;8.10;;;3.92;;
34585;SDS011;20816;50.950;11.108;2023-06-10T12:40:34;4.85;;;4.13;;
34585;SDS011;20816;50.950;11.108;2023-06-10T12:43:03;4.25;;;3.85;;
34585;SDS011;20816;50.950;11.108;2023-06-10T12:45:31;5.72;;;3.60;;
34585;SDS011;20816;50.950;11.108;2023-06-10T12:50:57;4.70;;;3.85;;
34585;SDS011;20816;50.950;11.108;2023-06-10T12:53:25;5.68;;;4.35;;
34585;SDS011;20816;50.950;11.108;2023-06-10T12:55:55;5.75;;;3.85;;
34585;SDS011;20816;50.950;11.108;2023-06-10T12:58:22;7.03;;;3.55;;
34585;SDS011;20816;50.950;11.108;2023-06-10T13:00:49;4.47;;;3.85;;
34585;SDS011;20816;50.950;11.108;2023-06-10T13:03:19;3.60;;;3.30;;
34585;SDS011;20816;50.950;11.108;2023-06-10T13:05:47;4.38;;;3.97;;
34585;SDS011;20816;50.950;11.108;2023-06-10T13:08:13;4.78;;;4.20;;
34585;SDS011;20816;50.950;11.108;2023-06-10T13:10:40;7.07;;;3.50;;
34585;SDS011;20816;50.950;11.108;2023-06-10T13:13:07;3.88;;;3.47;;
34585;SDS011;20816;50.950;11.108;2023-06-10T13:15:36;3.50;;;3.08;;
34585;SDS011;20816;50.950;11.108;2023-06-10T13:18:08;4.70;;;3.80;;
34585;SDS011;20816;50.950;11.108;2023-06-10T13:20:35;4.50;;;3.88;;
34585;SDS011;20816;50.950;11.108;2023-06-10T13:23:02;4.57;;;3.65;;
34585;SDS011;20816;50.950;11.108;2023-06-10T13:25:29;6.28;;;4.05;;
34585;SDS011;20816;50.950;11.108;2023-06-10T13:27:56;3.63;;;3.33;;
34585;SDS011;20816;50.950;11.108;2023-06-10T13:30:23;3.88;;;3.10;;
34585;SDS011;20816;50.950;11.108;2023-06-10T13:32:50;3.35;;;3.05;;
34585;SDS011;20816;50.950;11.108;2023-06-10T13:35:17;2.97;;;2.67;;
34585;SDS011;20816;50.950;11.108;2023-06-10T13:37:43;3.92;;;3.00;;
34585;SDS011;20816;50.950;11.108;2023-06-10T13:40:11;3.60;;;3.00;;
34585;SDS011;20816;50.950;11.108;2023-06-10T13:42:38;4.30;;;3.00;;
34585;SDS011;20816;50.950;11.108;2023-06-10T13:45:05;4.40;;;3.08;;
34585;SDS011;20816;50.950;11.108;2023-06-10T13:47:32;3.55;;;2.85;;
34585;SDS011;20816;50.950;11.108;2023-06-10T13:49:59;3.55;;;2.80;;
34585;SDS011;20816;50.950;11.108;2023-06-10T13:52:26;3.35;;;3.03;;
34585;SDS011;20816;50.950;11.108;2023-06-10T13:54:53;5.18;;;2.75;;
34585;SDS011;20816;50.950;11.108;2023-06-10T13:57:20;2.80;;;2.50;;
34585;SDS011;20816;50.950;11.108;2023-06-10T13:59:46;2.58;;;2.08;;
34585;SDS011;20816;50.950;11.108;2023-06-10T14:02:13;2.80;;;2.30;;
34585;SDS011;20816;50.950;11.108;2023-06-10T14:04:40;2.85;;;2.40;;
34585;SDS011;20816;50.950;11.108;2023-06-10T14:07:07;2.60;;;2.40;;
34585;SDS011;20816;50.950;11.108;2023-06-10T14:09:34;3.13;;;2.40;;
34585;SDS011;20816;50.950;11.108;2023-06-10T14:12:00;2.20;;;1.98;;
34585;SDS011;20816;50.950;11.108;2023-06-10T14:14:29;3.13;;;1.67;;
34585;SDS011;20816;50.950;11.108;2023-06-10T14:16:56;3.50;;;2.03;;
34585;SDS011;20816;50.950;11.108;2023-06-10T14:19:23;2.03;;;1.77;;
34585;SDS011;20816;50.950;11.108;2023-06-10T14:21:50;3.72;;;2.45;;
34585;SDS011;20816;50.950;11.108;2023-06-10T14:24:17;3.05;;;2.42;;
34585;SDS011;20816;50.950;11.108;2023-06-10T14:26:44;2.28;;;1.63;;
34585;SDS011;20816;50.950;11.108;2023-06-10T14:29:11;3.88;;;2.17;;
34585;SDS011;20816;50.950;11.108;2023-06-10T14:31:40;5.75;;;2.35;;
34585;SDS011;20816;50.950;11.108;2023-06-10T14:34:07;2.00;;;1.80;;
34585;SDS011;20816;50.950;11.108;2023-06-10T14:36:35;3.35;;;2.10;;
34585;SDS011;20816;50.950;11.108;2023-06-10T14:39:03;2.10;;;1.90;;
34585;SDS011;20816;50.950;11.108;2023-06-10T14:41:30;4.43;;;2.65;;
34585;SDS011;20816;50.950;11.108;2023-06-10T14:43:57;5.10;;;1.80;;
34585;SDS011;20816;50.950;11.108;2023-06-10T14:46:24;2.75;;;2.05;;
34585;SDS011;20816;50.950;11.108;2023-06-10T14:48:51;2.30;;;2.10;;
34585;SDS011;20816;50.950;11.108;2023-06-10T14:51:17;7.63;;;2.10;;
34585;SDS011;20816;50.950;11.108;2023-06-10T14:53:44;2.00;;;1.80;;
34585;SDS011;20816;50.950;11.108;2023-06-10T14:56:12;2.25;;;1.75;;
34585;SDS011;20816;50.950;11.108;2023-06-10T14:58:38;2.72;;;1.77;;
34585;SDS011;20816;50.950;11.108;2023-06-10T15:01:05;2.45;;;1.95;;